Time;durP1;ratioP1;P1;durP2;ratioP2;P2;SDS_P1;SDS_P2;PMS_P1;PMS_P2;Temp;Humidity;BMP_temperature;BMP_pressure;BME280_temperature;BME280_humidity;BME280_pressure;Samples;Min_cycle;Max_cycle;Signal;HPM_P1;HPM_P2
2021/12/23 00:00:10;;;;;;;18.77;16.67;;;;;21.30;100598.00;;;;2086344;28;20213;-45
2021/12/23 00:01:11;;;;;;;21.92;17.08;;;;;21.30;100598.00;;;;2086305;28;20205;-46
2021/12/23 00:02:11;;;;;;;28.00;19.00;;;;;21.20;100606.00;;;;2087626;28;20672;-46
2021/12/23 00:03:11;;;;;;;19.87;17.53;;;;;21.00;100596.00;;;;2086425;28;20206;-45
2021/12/23 00:04:12;;;;;;;21.60;17.20;;;;;21.20;100612.00;;;;2078366;28;20348;-46
2021/12/23 00:05:12;;;;;;;22.63;18.10;;;;;21.30;100601.00;;;;2078185;28;20214;-45
2021/12/23 00:06:13;;;;;;;19.30;16.40;;;;;21.30;100596.00;;;;2087246;28;20216;-46
2021/12/23 00:07:13;;;;;;;18.33;16.00;;;;;21.20;100589.00;;;;2087910;28;20707;-46
2021/12/23 00:08:14;;;;;;;20.50;16.23;;;;;21.30;100587.00;;;;2087797;28;20213;-46
2021/12/23 00:09:14;;;;;;;17.93;15.87;;;;;21.20;100578.00;;;;2083672;28;20781;-46
2021/12/23 00:10:15;;;;;;;22.53;15.60;;;;;21.20;100576.00;;;;2079189;28;20678;-46
2021/12/23 00:11:15;;;;;;;23.07;15.77;;;;;21.20;100560.00;;;;2078257;28;20281;-45
2021/12/23 00:12:16;;;;;;;16.20;14.47;;;;;21.20;100552.00;;;;2079151;28;20205;-46
2021/12/23 00:13:17;;;;;;;15.68;13.65;;;;;21.20;100545.00;;;;2076683;28;20206;-46
2021/12/23 00:14:17;;;;;;;16.53;13.87;;;;;21.20;100542.00;;;;2078090;28;20305;-45
2021/12/23 00:15:30;;;;;;;15.73;14.03;;;;;21.20;100547.00;;;;2070436;28;20227;-45
2021/12/23 00:16:46;;;;;;;14.73;13.18;;;;;21.20;100543.00;;;;2064868;28;20206;-46
2021/12/23 00:18:06;;;;;;;18.08;13.80;;;;;21.20;100534.00;;;;2078869;28;20267;-46
2021/12/23 00:19:18;;;;;;;14.55;12.90;;;;;21.10;100534.00;;;;2086996;28;20213;-45
2021/12/23 00:24:03;;;;;;;15.75;12.75;;;;;21.10;100535.00;;;;2086876;28;20220;-46
2021/12/23 00:25:03;;;;;;;14.27;12.70;;;;;21.10;100545.00;;;;2087186;28;20213;-46
2021/12/23 00:26:04;;;;;;;16.67;12.63;;;;;21.10;100552.00;;;;2086924;28;20212;-46
2021/12/23 00:27:05;;;;;;;13.80;11.87;;;;;21.10;100554.00;;;;2087190;28;20299;-46
2021/12/23 00:28:05;;;;;;;14.70;12.13;;;;;21.10;100554.00;;;;2084672;28;20235;-46
2021/12/23 00:29:06;;;;;;;14.93;11.50;;;;;21.10;100544.00;;;;2087509;28;20224;-46
2021/12/23 00:30:07;;;;;;;14.80;11.97;;;;;21.10;100547.00;;;;2087471;28;20241;-46
2021/12/23 00:31:08;;;;;;;14.45;12.77;;;;;21.10;100551.00;;;;2086600;28;20763;-46
2021/12/23 00:32:09;;;;;;;12.80;11.37;;;;;21.10;100552.00;;;;2087380;28;20209;-45
2021/12/23 00:33:09;;;;;;;16.27;12.07;;;;;21.00;100545.00;;;;2077968;28;20464;-46
2021/12/23 00:34:10;;;;;;;14.47;12.03;;;;;21.00;100545.00;;;;2078825;28;20457;-46
2021/12/23 00:35:11;;;;;;;14.27;11.10;;;;;21.00;100544.00;;;;2079930;28;20214;-45
2021/12/23 00:36:12;;;;;;;14.50;12.20;;;;;21.00;100538.00;;;;2079195;28;20670;-46
2021/12/23 00:37:13;;;;;;;13.52;11.82;;;;;21.00;100536.00;;;;2078660;28;20222;-46
2021/12/23 00:38:20;;;;;;;13.93;11.40;;;;;21.00;100537.00;;;;2078831;28;20239;-46
2021/12/23 00:39:20;;;;;;;13.45;11.98;;;;;21.00;100534.00;;;;2078703;28;20227;-45
2021/12/23 00:40:21;;;;;;;12.53;11.23;;;;;21.00;100527.00;;;;2078317;28;20628;-45
2021/12/23 00:41:23;;;;;;;13.20;10.57;;;;;21.00;100526.00;;;;2079997;28;20244;-46
2021/12/23 00:42:23;;;;;;;12.23;10.68;;;;;21.00;100533.00;;;;2084858;28;20534;-45
2021/12/23 00:43:23;;;;;;;13.10;11.20;;;;;21.00;100524.00;;;;2086375;28;20684;-45
2021/12/23 00:44:24;;;;;;;11.77;10.47;;;;;21.00;100519.00;;;;2086668;28;20617;-46
2021/12/23 00:45:24;;;;;;;11.90;10.70;;;;;21.00;100517.00;;;;2086903;28;20216;-46
2021/12/23 00:46:24;;;;;;;12.40;10.77;;;;;21.00;100504.00;;;;2086631;28;20232;-46
2021/12/23 00:47:25;;;;;;;12.90;10.80;;;;;20.90;100495.00;;;;2086305;28;20290;-45
2021/12/23 00:48:25;;;;;;;11.47;10.30;;;;;21.00;100491.00;;;;2086276;28;20833;-45
2021/12/23 00:49:26;;;;;;;11.90;10.03;;;;;21.00;100486.00;;;;2086759;28;20672;-46
2021/12/23 00:50:26;;;;;;;11.80;10.57;;;;;20.90;100485.00;;;;2085778;28;20214;-46
2021/12/23 00:51:26;;;;;;;11.10;10.10;;;;;20.90;100493.00;;;;2087212;28;20212;-46
2021/12/23 00:52:32;;;;;;;10.47;9.37;;;;;20.90;100484.00;;;;2086982;28;20308;-46
2021/12/23 00:53:38;;;;;;;11.38;10.20;;;;;20.90;100489.00;;;;2081565;28;20743;-46
2021/12/23 00:54:38;;;;;;;12.73;10.05;;;;;20.90;100497.00;;;;2084943;28;20240;-46
2021/12/23 00:55:38;;;;;;;10.57;9.50;;;;;20.90;100488.00;;;;2086717;28;20209;-46
2021/12/23 00:56:39;;;;;;;10.47;9.53;;;;;20.90;100484.00;;;;2086893;28;20204;-46
2021/12/23 00:57:41;;;;;;;11.63;10.43;;;;;20.90;100485.00;;;;2082925;28;20350;-46
2021/12/23 00:58:41;;;;;;;10.77;9.68;;;;;20.90;100479.00;;;;2074705;28;20764;-46
2021/12/23 00:59:41;;;;;;;11.87;10.67;;;;;20.90;100469.00;;;;2078414;28;20214;-46
2021/12/23 01:00:42;;;;;;;11.30;9.97;;;;;20.90;100469.00;;;;2077695;28;20240;-46
2021/12/23 01:01:43;;;;;;;9.57;8.57;;;;;20.90;100464.00;;;;2077621;28;20229;-46
2021/12/23 01:02:45;;;;;;;10.63;9.40;;;;;20.90;100467.00;;;;2077744;28;20448;-45
2021/12/23 01:03:45;;;;;;;11.02;9.70;;;;;20.80;100453.00;;;;2078196;28;20253;-45
2021/12/23 01:04:46;;;;;;;11.10;9.90;;;;;20.90;100460.00;;;;2078230;28;20222;-46
2021/12/23 01:05:46;;;;;;;9.80;8.90;;;;;20.90;100462.00;;;;2078559;28;20279;-46
2021/12/23 01:06:48;;;;;;;9.73;8.80;;;;;20.90;100460.00;;;;2077877;28;20217;-45
2021/12/23 01:07:48;;;;;;;11.27;9.60;;;;;20.90;100471.00;;;;2078622;28;20217;-45
2021/12/23 01:08:49;;;;;;;11.03;9.87;;;;;20.80;100465.00;;;;2078362;28;20209;-45
2021/12/23 01:09:49;;;;;;;9.90;9.00;;;;;20.80;100465.00;;;;2078093;28;20285;-45
2021/12/23 01:10:53;;;;;;;10.27;9.30;;;;;20.80;100461.00;;;;2077592;28;20213;-46
2021/12/23 01:11:54;;;;;;;10.15;9.20;;;;;20.80;100455.00;;;;2077251;28;20951;-45
2021/12/23 01:13:01;;;;;;;10.75;9.50;;;;;20.80;100450.00;;;;2077851;28;20346;-45
2021/12/23 01:14:25;;;;;;;9.30;8.38;;;;;20.80;100442.00;;;;2078306;28;20221;-46
2021/12/23 01:16:47;;;;;;;9.05;8.15;;;;;20.80;100440.00;;;;2078346;28;20214;-46
2021/12/23 01:17:57;;;;;;;12.15;9.60;;;;;20.80;100448.00;;;;2083182;28;20215;-46
2021/12/23 01:18:57;;;;;;;9.68;8.77;;;;;20.80;100442.00;;;;2087187;28;20213;-46
2021/12/23 01:20:00;;;;;;;10.37;9.40;;;;;20.80;100437.00;;;;2087027;28;20700;-45
2021/12/23 01:21:04;;;;;;;9.55;8.65;;;;;20.80;100433.00;;;;2086250;28;20225;-46
2021/12/23 01:22:08;;;;;;;9.60;8.70;;;;;20.70;100442.00;;;;2086899;28;20220;-45
2021/12/23 01:23:09;;;;;;;9.43;8.55;;;;;20.70;100440.00;;;;2086872;28;20212;-46
2021/12/23 01:24:10;;;;;;;9.55;8.65;;;;;20.70;100439.00;;;;2083756;28;21364;-46
2021/12/23 01:25:10;;;;;;;10.30;9.30;;;;;20.80;100431.00;;;;2086411;28;20217;-45
2021/12/23 01:26:13;;;;;;;9.30;8.23;;;;;20.80;100429.00;;;;2086792;28;20458;-45
2021/12/23 01:27:14;;;;;;;10.50;9.45;;;;;20.70;100423.00;;;;2076272;28;20220;-46
2021/12/23 01:28:14;;;;;;;9.30;8.50;;;;;20.70;100425.00;;;;2074336;28;20696;-46
2021/12/23 01:29:15;;;;;;;9.60;8.70;;;;;20.80;100425.00;;;;2084727;28;20236;-46
2021/12/23 01:30:17;;;;;;;9.20;8.30;;;;;20.70;100426.00;;;;2078589;28;20210;-45
2021/12/23 01:31:17;;;;;;;8.73;7.93;;;;;20.70;100427.00;;;;2077365;28;20574;-46
2021/12/23 01:32:18;;;;;;;9.63;8.73;;;;;20.70;100430.00;;;;2078660;28;20213;-46
2021/12/23 01:33:18;;;;;;;9.23;8.33;;;;;20.70;100431.00;;;;2070065;28;20217;-46
2021/12/23 01:34:18;;;;;;;10.67;9.67;;;;;20.70;100424.00;;;;2078441;28;20286;-46
2021/12/23 01:35:19;;;;;;;8.30;7.60;;;;;20.70;100413.00;;;;2078364;28;20624;-46
2021/12/23 01:36:19;;;;;;;9.50;8.60;;;;;20.70;100413.00;;;;2078422;28;20592;-45
2021/12/23 01:37:20;;;;;;;9.40;8.53;;;;;20.70;100397.00;;;;2078463;28;20228;-46
2021/12/23 01:38:20;;;;;;;9.57;8.67;;;;;20.70;100397.00;;;;2076081;28;20229;-46
2021/12/23 01:39:20;;;;;;;9.77;8.87;;;;;20.70;100396.00;;;;2078234;28;20225;-46
2021/12/23 01:40:21;;;;;;;9.70;8.80;;;;;20.60;100398.00;;;;2078004;28;20228;-46
2021/12/23 01:41:23;;;;;;;8.23;7.43;;;;;20.40;100404.00;;;;2077878;28;20225;-45
2021/12/23 01:42:23;;;;;;;7.93;7.10;;;;;20.40;100399.00;;;;2082445;28;20221;-46
2021/12/23 01:43:24;;;;;;;8.23;7.30;;;;;20.50;100394.00;;;;2085950;28;20220;-46
2021/12/23 01:44:24;;;;;;;7.73;7.03;;;;;20.60;100393.00;;;;2086400;28;20307;-46
2021/12/23 01:45:27;;;;;;;8.67;7.87;;;;;20.70;100399.00;;;;2086636;28;20247;-46
2021/12/23 01:46:27;;;;;;;8.75;7.88;;;;;20.70;100388.00;;;;2086134;28;20223;-46
2021/12/23 01:47:29;;;;;;;7.67;6.97;;;;;20.70;100382.00;;;;2086702;28;20209;-46
2021/12/23 01:48:29;;;;;;;8.20;7.40;;;;;20.70;100379.00;;;;2082582;28;20693;-46
2021/12/23 01:49:31;;;;;;;8.13;7.33;;;;;20.80;100381.00;;;;2086318;28;20205;-45
2021/12/23 01:50:34;;;;;;;7.95;7.20;;;;;20.80;100375.00;;;;2085698;28;20776;-46
2021/12/23 01:51:35;;;;;;;8.18;7.38;;;;;20.70;100373.00;;;;2084840;28;20223;-46
2021/12/23 01:52:35;;;;;;;8.40;7.60;;;;;20.70;100380.00;;;;2085788;28;20213;-45
2021/12/23 01:53:36;;;;;;;7.77;7.07;;;;;20.70;100373.00;;;;2085183;28;20592;-47
2021/12/23 01:54:36;;;;;;;8.60;7.80;;;;;20.80;100372.00;;;;2086527;28;21702;-46
2021/12/23 01:55:37;;;;;;;8.63;7.80;;;;;20.80;100375.00;;;;2086215;28;20217;-46
2021/12/23 01:56:38;;;;;;;8.82;8.02;;;;;20.80;100374.00;;;;2086612;28;20217;-45
2021/12/23 01:57:40;;;;;;;8.93;8.13;;;;;20.80;100384.00;;;;2085894;28;20644;-46
2021/12/23 01:58:40;;;;;;;8.32;7.47;;;;;20.80;100394.00;;;;2074872;28;20213;-46
2021/12/23 01:59:41;;;;;;;7.80;7.10;;;;;20.80;100400.00;;;;2085649;28;20291;-46
2021/12/23 02:00:43;;;;;;;9.20;8.00;;;;;20.80;100404.00;;;;2077208;28;20224;-46
2021/12/23 02:01:44;;;;;;;7.95;7.07;;;;;20.80;100398.00;;;;2077793;28;20897;-46
2021/12/23 02:02:45;;;;;;;9.10;7.43;;;;;20.70;100393.00;;;;2085655;28;20235;-46
2021/12/23 02:03:45;;;;;;;8.53;7.17;;;;;20.80;100395.00;;;;2079544;28;20449;-46
2021/12/23 02:04:45;;;;;;;8.20;7.40;;;;;20.80;100380.00;;;;2077623;28;20205;-46
2021/12/23 02:05:46;;;;;;;7.83;7.13;;;;;20.80;100384.00;;;;2077708;28;20571;-46
2021/12/23 02:06:46;;;;;;;8.57;7.17;;;;;20.70;100384.00;;;;2078261;28;20210;-46
2021/12/23 02:07:46;;;;;;;8.63;7.90;;;;;20.60;100378.00;;;;2078057;28;20225;-45
2021/12/23 02:08:47;;;;;;;7.50;6.80;;;;;20.70;100378.00;;;;2077980;28;20674;-45
2021/12/23 02:09:47;;;;;;;8.47;7.67;;;;;20.70;100386.00;;;;2078290;28;20619;-46
2021/12/23 02:10:47;;;;;;;8.03;7.30;;;;;20.70;100373.00;;;;2076345;28;20585;-46
2021/12/23 02:11:48;;;;;;;8.07;7.27;;;;;20.70;100381.00;;;;2077496;28;20701;-46
2021/12/23 02:12:48;;;;;;;8.27;7.50;;;;;20.60;100395.00;;;;2071969;28;20236;-46
2021/12/23 02:13:49;;;;;;;8.60;7.73;;;;;20.70;100397.00;;;;2085318;28;20703;-46
2021/12/23 02:14:49;;;;;;;8.70;7.90;;;;;20.70;100393.00;;;;2086574;28;20224;-45
2021/12/23 02:15:50;;;;;;;8.00;7.30;;;;;20.60;100383.00;;;;2085564;28;20259;-45
2021/12/23 02:16:50;;;;;;;7.93;6.90;;;;;20.60;100378.00;;;;2085802;28;20227;-46
2021/12/23 02:17:51;;;;;;;8.10;7.20;;;;;20.60;100382.00;;;;2085481;28;20209;-46
2021/12/23 02:18:51;;;;;;;7.90;7.10;;;;;20.60;100385.00;;;;2088446;28;20216;-46
2021/12/23 02:19:52;;;;;;;7.93;7.13;;;;;20.60;100376.00;;;;2088095;28;20296;-46
2021/12/23 02:20:53;;;;;;;8.73;7.70;;;;;20.60;100372.00;;;;2085498;28;20255;-48
2021/12/23 02:21:53;;;;;;;8.00;7.30;;;;;20.60;100380.00;;;;2087764;28;20358;-46
2021/12/23 02:22:54;;;;;;;8.97;7.90;;;;;20.60;100372.00;;;;2087783;28;20212;-46
2021/12/23 02:23:54;;;;;;;8.10;7.30;;;;;20.60;100371.00;;;;2087619;28;20239;-46
2021/12/23 02:24:54;;;;;;;8.10;7.40;;;;;20.60;100375.00;;;;2088274;28;20236;-46
2021/12/23 02:25:55;;;;;;;8.07;7.27;;;;;20.60;100373.00;;;;2087008;28;20205;-46
2021/12/23 02:26:55;;;;;;;8.03;7.23;;;;;20.60;100367.00;;;;2088286;28;20240;-46
2021/12/23 02:27:57;;;;;;;7.63;6.93;;;;;20.60;100367.00;;;;2088030;28;20304;-46
2021/12/23 02:28:58;;;;;;;8.10;7.40;;;;;20.60;100374.00;;;;2079033;28;20209;-46
2021/12/23 02:29:58;;;;;;;7.40;6.70;;;;;20.60;100378.00;;;;2080296;28;20546;-45
2021/12/23 02:30:58;;;;;;;7.40;6.77;;;;;20.60;100362.00;;;;2079289;28;20201;-46
2021/12/23 02:31:59;;;;;;;7.90;7.20;;;;;20.60;100370.00;;;;2080022;28;20209;-46
2021/12/23 02:32:59;;;;;;;7.93;7.23;;;;;20.60;100358.00;;;;2079887;28;20201;-47
2021/12/23 02:33:59;;;;;;;7.43;6.83;;;;;20.60;100358.00;;;;2077833;28;20209;-46
2021/12/23 02:35:00;;;;;;;7.77;7.00;;;;;20.60;100373.00;;;;2080236;28;20201;-46
2021/12/23 02:36:00;;;;;;;7.70;6.90;;;;;20.60;100361.00;;;;2079905;28;20206;-45
2021/12/23 02:37:01;;;;;;;8.70;7.90;;;;;20.60;100358.00;;;;2079195;28;20202;-46
2021/12/23 02:38:02;;;;;;;7.83;7.03;;;;;20.60;100366.00;;;;2078863;28;20267;-46
2021/12/23 02:39:02;;;;;;;7.97;7.25;;;;;20.60;100372.00;;;;2074429;28;20660;-45
2021/12/23 02:40:03;;;;;;;7.73;7.03;;;;;20.60;100359.00;;;;2080234;28;20205;-46
2021/12/23 02:41:03;;;;;;;7.23;6.53;;;;;20.60;100362.00;;;;2079520;28;20331;-46
2021/12/23 02:42:05;;;;;;;8.47;7.57;;;;;20.60;100354.00;;;;2079887;28;20460;-46
2021/12/23 02:43:13;;;;;;;8.25;7.45;;;;;20.50;100347.00;;;;2084570;28;20223;-46
2021/12/23 02:44:13;;;;;;;8.63;7.82;;;;;20.50;100349.00;;;;2084945;28;20295;-46
2021/12/23 02:45:14;;;;;;;8.37;7.47;;;;;20.50;100344.00;;;;2087768;28;20567;-45
2021/12/23 02:46:17;;;;;;;7.67;7.00;;;;;20.50;100343.00;;;;2087752;28;20263;-47
2021/12/23 02:47:18;;;;;;;8.00;7.20;;;;;20.50;100336.00;;;;2088285;28;20688;-46
2021/12/23 02:48:30;;;;;;;8.07;7.30;;;;;20.50;100337.00;;;;2088146;28;20289;-46
2021/12/23 02:49:32;;;;;;;7.57;6.97;;;;;20.50;100336.00;;;;2088169;28;20248;-46
2021/12/23 02:50:32;;;;;;;7.95;7.20;;;;;20.50;100335.00;;;;2087557;28;20282;-46
2021/12/23 02:51:32;;;;;;;7.90;7.20;;;;;20.50;100323.00;;;;2088006;28;20258;-46
2021/12/23 02:52:33;;;;;;;7.50;6.90;;;;;20.50;100331.00;;;;2087757;28;20217;-46
2021/12/23 02:53:34;;;;;;;7.60;6.90;;;;;20.50;100335.00;;;;2087566;28;20212;-46
2021/12/23 02:54:34;;;;;;;7.00;6.30;;;;;20.50;100318.00;;;;2087778;28;20335;-45
2021/12/23 02:55:35;;;;;;;8.40;7.60;;;;;20.50;100318.00;;;;2087748;28;20778;-46
2021/12/23 02:56:35;;;;;;;6.83;6.20;;;;;20.50;100316.00;;;;2087876;28;20768;-46
2021/12/23 02:57:35;;;;;;;7.63;6.87;;;;;20.50;100320.00;;;;2087855;28;20223;-46
2021/12/23 02:58:36;;;;;;;7.27;6.60;;;;;20.50;100323.00;;;;2088265;28;20565;-46
2021/12/23 02:59:36;;;;;;;7.87;7.17;;;;;20.50;100324.00;;;;2088242;28;20853;-46
2021/12/23 03:00:38;;;;;;;7.47;6.80;;;;;20.40;100267.00;;;;2087574;28;20717;-46
2021/12/23 03:01:38;;;;;;;8.27;7.47;;;;;20.50;100326.00;;;;2088154;28;20360;-46
2021/12/23 03:02:39;;;;;;;7.70;7.00;;;;;20.50;100335.00;;;;2088097;28;20217;-47
2021/12/23 03:03:40;;;;;;;7.63;6.82;;;;;20.50;100330.00;;;;2088121;28;20209;-46
2021/12/23 03:04:40;;;;;;;7.77;7.10;;;;;20.50;100333.00;;;;2087652;28;20209;-47
2021/12/23 03:05:46;;;;;;;7.73;7.00;;;;;20.50;100325.00;;;;2087445;28;20701;-47
2021/12/23 03:06:46;;;;;;;7.50;6.90;;;;;20.40;100341.00;;;;2088295;28;20204;-46
2021/12/23 03:07:47;;;;;;;7.80;7.10;;;;;20.50;100351.00;;;;2088171;28;20215;-45
2021/12/23 03:08:49;;;;;;;8.10;7.37;;;;;20.50;100344.00;;;;2088174;28;20207;-46
2021/12/23 03:09:49;;;;;;;7.82;7.13;;;;;20.40;100346.00;;;;2088129;28;20217;-46
2021/12/23 03:10:50;;;;;;;7.30;6.70;;;;;20.40;100338.00;;;;2083387;28;20240;-46
2021/12/23 03:11:51;;;;;;;7.67;6.97;;;;;20.40;100336.00;;;;2080000;28;20198;-46
2021/12/23 03:12:52;;;;;;;8.10;7.27;;;;;20.50;100345.00;;;;2079431;28;20450;-46
2021/12/23 03:13:55;;;;;;;7.30;6.70;;;;;20.50;100342.00;;;;2075465;28;20226;-46
2021/12/23 03:14:55;;;;;;;7.07;6.47;;;;;20.40;100321.00;;;;2070826;28;20756;-46
2021/12/23 03:15:55;;;;;;;7.00;6.40;;;;;20.40;100326.00;;;;2070727;28;20248;-45
2021/12/23 03:16:56;;;;;;;8.00;7.30;;;;;20.40;100321.00;;;;2078634;28;20214;-46
2021/12/23 03:17:57;;;;;;;7.40;6.80;;;;;20.40;100323.00;;;;2079392;28;20218;-46
2021/12/23 03:18:57;;;;;;;7.53;6.83;;;;;20.40;100336.00;;;;2079546;28;20740;-46
2021/12/23 03:19:57;;;;;;;7.03;6.40;;;;;20.40;100333.00;;;;2079684;28;20582;-46
2021/12/23 03:20:59;;;;;;;8.27;7.57;;;;;20.40;100331.00;;;;2083322;28;20221;-46
2021/12/23 03:21:59;;;;;;;7.55;6.90;;;;;20.40;100338.00;;;;2087930;28;20246;-45
2021/12/23 03:23:00;;;;;;;7.53;6.93;;;;;20.40;100332.00;;;;2086824;28;20228;-46
2021/12/23 03:24:00;;;;;;;8.07;7.27;;;;;20.40;100335.00;;;;2087795;28;20239;-46
2021/12/23 03:25:01;;;;;;;7.97;7.27;;;;;20.40;100330.00;;;;2087795;28;20216;-46
2021/12/23 03:26:02;;;;;;;8.05;7.35;;;;;20.40;100335.00;;;;2087910;28;20217;-46
2021/12/23 03:27:02;;;;;;;7.50;6.60;;;;;20.40;100339.00;;;;2088071;28;20564;-46
2021/12/23 03:28:03;;;;;;;8.40;7.60;;;;;20.40;100343.00;;;;2088212;28;20357;-45
2021/12/23 03:29:04;;;;;;;8.17;7.47;;;;;20.40;100338.00;;;;2086060;28;20240;-45
2021/12/23 03:30:06;;;;;;;7.30;6.63;;;;;20.40;100336.00;;;;2087352;28;20236;-46
2021/12/23 03:31:06;;;;;;;7.70;7.00;;;;;20.40;100335.00;;;;2078533;28;20209;-46
2021/12/23 03:32:07;;;;;;;7.40;6.73;;;;;20.40;100309.00;;;;2079967;28;20210;-47
2021/12/23 03:33:07;;;;;;;7.97;7.23;;;;;20.40;100320.00;;;;2077852;28;20205;-46
2021/12/23 03:34:07;;;;;;;8.23;7.53;;;;;20.40;100312.00;;;;2074460;28;20584;-47
2021/12/23 03:35:08;;;;;;;7.13;6.53;;;;;20.40;100309.00;;;;2079777;28;20209;-46
2021/12/23 03:36:08;;;;;;;7.90;7.20;;;;;20.40;100307.00;;;;2079730;28;20220;-47
2021/12/23 03:37:09;;;;;;;7.83;7.13;;;;;20.40;100315.00;;;;2079387;28;20706;-46
2021/12/23 03:38:09;;;;;;;7.90;7.10;;;;;20.40;100320.00;;;;2079611;28;20694;-46
2021/12/23 03:39:09;;;;;;;8.37;7.67;;;;;20.30;100318.00;;;;2079505;28;20220;-46
2021/12/23 03:40:10;;;;;;;8.00;7.30;;;;;20.40;100320.00;;;;2079561;28;20681;-46
2021/12/23 03:41:10;;;;;;;7.50;6.90;;;;;20.40;100320.00;;;;2079062;28;20240;-46
2021/12/23 03:42:11;;;;;;;7.43;6.80;;;;;20.30;100324.00;;;;2079391;28;20296;-46
2021/12/23 03:43:12;;;;;;;7.87;7.00;;;;;20.30;100316.00;;;;2079353;28;20239;-46
2021/12/23 03:44:12;;;;;;;7.72;7.03;;;;;20.30;100317.00;;;;2076483;28;20210;-46
2021/12/23 03:45:13;;;;;;;6.90;6.40;;;;;20.30;100321.00;;;;2078899;28;20217;-46
2021/12/23 03:46:13;;;;;;;8.17;7.47;;;;;20.30;100321.00;;;;2079000;28;20320;-46
2021/12/23 03:47:13;;;;;;;8.20;7.40;;;;;20.30;100314.00;;;;2078950;28;20220;-46
2021/12/23 03:48:14;;;;;;;7.37;6.77;;;;;20.30;100302.00;;;;2079243;28;20221;-46
2021/12/23 03:49:15;;;;;;;8.00;7.20;;;;;20.30;100293.00;;;;2071186;28;20721;-46
2021/12/23 03:50:19;;;;;;;8.20;7.50;;;;;20.30;100288.00;;;;2068917;28;20815;-46
2021/12/23 03:51:20;;;;;;;7.50;6.80;;;;;20.30;100296.00;;;;2070556;28;20218;-46
2021/12/23 03:52:20;;;;;;;7.57;6.97;;;;;20.30;100288.00;;;;2070250;28;20734;-46
2021/12/23 03:53:20;;;;;;;7.57;6.97;;;;;20.30;100296.00;;;;2069911;28;20210;-46
2021/12/23 03:54:21;;;;;;;8.27;7.50;;;;;20.30;100299.00;;;;2068077;28;20214;-46
2021/12/23 03:55:21;;;;;;;7.30;6.70;;;;;20.30;100299.00;;;;2070806;28;20214;-46
2021/12/23 03:56:21;;;;;;;7.97;7.27;;;;;20.30;100304.00;;;;2070924;28;20226;-46
2021/12/23 03:57:22;;;;;;;7.37;6.67;;;;;20.30;100317.00;;;;2070996;28;20222;-46
2021/12/23 03:58:22;;;;;;;8.70;7.90;;;;;20.30;100317.00;;;;2070496;28;20229;-46
2021/12/23 03:59:22;;;;;;;7.70;7.10;;;;;20.30;100315.00;;;;2071006;28;20305;-46
2021/12/23 04:00:23;;;;;;;7.80;7.10;;;;;20.30;100308.00;;;;2070704;28;20214;-45
2021/12/23 04:01:24;;;;;;;7.57;6.87;;;;;20.30;100315.00;;;;2070615;28;20284;-46
2021/12/23 04:02:24;;;;;;;8.40;7.70;;;;;20.20;100317.00;;;;2070701;28;20590;-47
2021/12/23 04:03:24;;;;;;;7.80;7.10;;;;;20.30;100310.00;;;;2078682;28;20225;-46
2021/12/23 04:04:25;;;;;;;8.30;7.60;;;;;20.30;100316.00;;;;2077464;28;20244;-45
2021/12/23 04:05:25;;;;;;;7.43;6.83;;;;;20.30;100319.00;;;;2079410;28;20256;-45
2021/12/23 04:06:26;;;;;;;7.63;7.03;;;;;20.30;100309.00;;;;2079552;28;20237;-46
2021/12/23 04:07:27;;;;;;;8.10;7.40;;;;;20.30;100314.00;;;;2079350;28;20343;-45
2021/12/23 04:08:28;;;;;;;8.37;7.57;;;;;20.30;100314.00;;;;2079491;28;20213;-46
2021/12/23 04:09:28;;;;;;;7.50;6.80;;;;;20.20;100315.00;;;;2077880;28;20463;-46
2021/12/23 04:10:29;;;;;;;8.13;7.40;;;;;20.30;100315.00;;;;2078607;28;20836;-45
2021/12/23 04:11:30;;;;;;;7.37;6.67;;;;;20.20;100308.00;;;;2078864;28;20209;-46
2021/12/23 04:12:30;;;;;;;7.60;6.90;;;;;20.20;100304.00;;;;2078350;28;20636;-46
2021/12/23 04:13:30;;;;;;;7.90;7.20;;;;;20.20;100312.00;;;;2079242;28;20228;-46
2021/12/23 04:14:31;;;;;;;7.50;6.90;;;;;20.20;100305.00;;;;2076924;28;20245;-45
2021/12/23 04:15:32;;;;;;;8.33;7.40;;;;;20.20;100299.00;;;;2079353;28;20222;-46
2021/12/23 04:16:32;;;;;;;8.05;7.35;;;;;20.20;100293.00;;;;2079540;28;20308;-46
2021/12/23 04:17:33;;;;;;;7.77;7.17;;;;;20.20;100287.00;;;;2079612;28;21206;-46
2021/12/23 04:18:33;;;;;;;7.40;6.70;;;;;20.30;100292.00;;;;2079376;28;20221;-46
2021/12/23 04:19:33;;;;;;;8.10;7.40;;;;;20.20;100295.00;;;;2076837;28;20221;-46
2021/12/23 04:20:45;;;;;;;8.60;7.80;;;;;20.20;100289.00;;;;2078583;28;20264;-46
2021/12/23 04:21:46;;;;;;;7.80;7.10;;;;;20.20;100277.00;;;;2079215;28;20209;-47
2021/12/23 04:22:50;;;;;;;7.90;7.30;;;;;20.30;100277.00;;;;2079118;28;20755;-47
2021/12/23 04:23:52;;;;;;;8.80;7.90;;;;;20.20;100280.00;;;;2075878;28;20214;-46
2021/12/23 04:24:52;;;;;;;7.38;6.68;;;;;20.20;100272.00;;;;2078967;28;20610;-46
2021/12/23 04:25:53;;;;;;;8.10;7.30;;;;;20.00;100272.00;;;;2078689;28;20228;-46
2021/12/23 04:26:53;;;;;;;7.73;7.13;;;;;20.20;100279.00;;;;2078067;28;20233;-46
2021/12/23 04:27:56;;;;;;;8.00;7.20;;;;;20.20;100260.00;;;;2078015;28;20468;-46
2021/12/23 04:28:56;;;;;;;8.00;7.30;;;;;20.20;100262.00;;;;2077703;28;20712;-46
2021/12/23 04:29:56;;;;;;;8.57;7.73;;;;;20.20;100261.00;;;;2078764;28;20236;-46
2021/12/23 04:30:57;;;;;;;9.23;8.33;;;;;20.20;100259.00;;;;2078167;28;20679;-46
2021/12/23 04:31:59;;;;;;;7.97;7.30;;;;;20.20;100259.00;;;;2078288;28;20685;-46
2021/12/23 04:32:59;;;;;;;7.75;7.05;;;;;20.20;100254.00;;;;2078473;28;20585;-46
2021/12/23 04:33:59;;;;;;;8.27;7.57;;;;;20.20;100246.00;;;;2078909;28;20211;-46
2021/12/23 04:35:00;;;;;;;8.13;7.40;;;;;20.20;100246.00;;;;2078908;28;20678;-46
2021/12/23 04:36:00;;;;;;;7.43;6.83;;;;;20.20;100258.00;;;;2079321;28;20667;-46
2021/12/23 04:37:00;;;;;;;7.63;6.97;;;;;20.20;100246.00;;;;2079161;28;20210;-46
2021/12/23 04:38:01;;;;;;;12.97;7.90;;;;;20.20;100247.00;;;;2078855;28;20255;-46
2021/12/23 04:39:01;;;;;;;8.80;8.00;;;;;20.20;100246.00;;;;2079259;28;20213;-46
2021/12/23 04:40:05;;;;;;;7.33;6.63;;;;;20.20;100234.00;;;;2079281;28;20205;-46
2021/12/23 04:41:06;;;;;;;8.30;7.60;;;;;20.20;100242.00;;;;2077992;28;20217;-46
2021/12/23 04:42:06;;;;;;;8.60;7.83;;;;;20.20;100241.00;;;;2077702;28;20209;-45
2021/12/23 04:43:08;;;;;;;8.33;7.63;;;;;20.20;100244.00;;;;2078565;28;20245;-46
2021/12/23 04:44:09;;;;;;;8.77;7.95;;;;;20.20;100244.00;;;;2073320;28;20221;-45
2021/12/23 04:45:09;;;;;;;8.70;7.80;;;;;20.20;100237.00;;;;2086592;28;20756;-46
2021/12/23 04:46:10;;;;;;;8.50;7.80;;;;;20.20;100234.00;;;;2080022;28;20838;-46
2021/12/23 04:47:11;;;;;;;8.70;7.80;;;;;20.20;100234.00;;;;2070856;28;20682;-46
2021/12/23 04:48:11;;;;;;;8.43;7.63;;;;;20.20;100250.00;;;;2071034;28;20283;-45
2021/12/23 04:49:11;;;;;;;8.77;8.00;;;;;20.10;100244.00;;;;2067796;28;20218;-46
2021/12/23 04:50:13;;;;;;;8.10;7.30;;;;;20.10;100243.00;;;;2073464;28;20674;-46
2021/12/23 04:51:14;;;;;;;8.73;8.00;;;;;20.10;100251.00;;;;2077005;28;20312;-46
2021/12/23 04:52:14;;;;;;;9.03;8.23;;;;;20.10;100254.00;;;;2078052;28;20218;-46
2021/12/23 04:53:15;;;;;;;8.57;7.77;;;;;20.10;100240.00;;;;2078108;28;20218;-46
2021/12/23 04:54:15;;;;;;;8.70;7.90;;;;;20.10;100245.00;;;;2077773;28;20223;-46
2021/12/23 04:55:15;;;;;;;9.40;7.73;;;;;20.10;100245.00;;;;2075749;28;20206;-45
2021/12/23 04:56:17;;;;;;;8.83;8.03;;;;;20.20;100246.00;;;;2070157;28;20269;-46
2021/12/23 04:57:17;;;;;;;8.15;7.45;;;;;20.10;100246.00;;;;2070366;28;20218;-46
2021/12/23 04:58:17;;;;;;;8.47;7.67;;;;;20.20;100235.00;;;;2070867;28;20292;-46
2021/12/23 04:59:18;;;;;;;8.50;7.80;;;;;20.10;100233.00;;;;2066104;28;20226;-46
2021/12/23 05:00:20;;;;;;;8.70;7.90;;;;;20.10;100229.00;;;;2069429;28;20702;-46
2021/12/23 05:01:27;;;;;;;8.75;7.90;;;;;20.10;100239.00;;;;2081593;28;20299;-46
2021/12/23 05:02:27;;;;;;;8.10;7.45;;;;;20.10;100227.00;;;;2086669;28;20209;-45
2021/12/23 05:03:27;;;;;;;8.27;7.47;;;;;20.10;100231.00;;;;2086524;28;20304;-46
2021/12/23 05:04:28;;;;;;;9.10;8.20;;;;;20.10;100231.00;;;;2084323;28;20220;-46
2021/12/23 05:05:28;;;;;;;8.30;7.60;;;;;20.10;100233.00;;;;2086586;28;20267;-46